Time;durP1;ratioP1;P1;durP2;ratioP2;P2;SDS_P1;SDS_P2;PMS_P1;PMS_P2;Temp;Humidity;BMP_temperature;BMP_pressure;BME280_temperature;BME280_humidity;BME280_pressure;Samples;Min_cycle;Max_cycle;Signal;HPM_P1;HPM_P2
2022/06/13 00:02:04;;;;;;;11.95;5.07;;;15.10;99.90;;;;;;4806982;29;20050;-54
2022/06/13 00:04:30;;;;;;;13.88;4.60;;;15.00;99.90;;;;;;4806560;29;20134;-57
2022/06/13 00:06:55;;;;;;;14.15;4.90;;;15.00;99.90;;;;;;4823355;29;20046;-56
2022/06/13 00:09:21;;;;;;;11.45;5.07;;;15.00;99.90;;;;;;4777280;29;20046;-54
2022/06/13 00:11:47;;;;;;;11.27;4.90;;;14.90;99.90;;;;;;4822602;29;20061;-58
2022/06/13 00:14:13;;;;;;;13.90;5.82;;;14.90;99.90;;;;;;4806695;29;20106;-55
2022/06/13 00:16:39;;;;;;;15.98;5.63;;;14.80;99.90;;;;;;4822569;29;20505;-58
2022/06/13 00:19:04;;;;;;;13.52;6.07;;;14.80;99.90;;;;;;4806956;29;20057;-58
2022/06/13 00:21:34;;;;;;;13.15;5.55;;;14.80;99.90;;;;;;4822729;29;20050;-61
2022/06/13 00:24:03;;;;;;;9.95;4.80;;;14.80;99.90;;;;;;4822736;29;20050;-56
2022/06/13 00:26:31;;;;;;;11.10;5.22;;;14.70;99.90;;;;;;4806929;29;20056;-59
2022/06/13 00:28:58;;;;;;;17.55;5.45;;;14.70;99.90;;;;;;4823073;29;20058;-57
2022/06/13 00:31:23;;;;;;;14.90;5.10;;;14.70;99.90;;;;;;4806670;29;20061;-56
2022/06/13 00:33:49;;;;;;;15.93;5.47;;;14.70;99.90;;;;;;4822599;29;20132;-57
2022/06/13 00:36:16;;;;;;;13.73;5.22;;;14.60;99.90;;;;;;4822785;29;20046;-57
2022/06/13 00:38:42;;;;;;;13.88;5.32;;;14.60;99.90;;;;;;4822445;29;20042;-56
2022/06/13 00:41:10;;;;;;;13.02;5.70;;;14.60;99.90;;;;;;4822744;29;20054;-58
2022/06/13 00:43:38;;;;;;;12.23;5.43;;;14.60;99.90;;;;;;4822184;29;20089;-56
2022/06/13 00:46:20;;;;;;;15.55;5.75;;;14.60;99.90;;;;;;4822393;29;20046;-59
2022/06/13 00:48:47;;;;;;;14.00;5.32;;;14.60;99.90;;;;;;4822443;29;20064;-56
2022/06/13 00:51:14;;;;;;;16.23;5.68;;;14.60;99.90;;;;;;4821711;29;20094;-57
2022/06/13 00:53:40;;;;;;;15.65;6.00;;;14.50;99.90;;;;;;4805932;29;20058;-56
2022/06/13 00:56:15;;;;;;;15.70;5.68;;;14.50;99.90;;;;;;4806163;29;20058;-55
2022/06/13 00:58:45;;;;;;;12.73;5.15;;;14.50;99.90;;;;;;4822089;29;20461;-53
2022/06/13 01:01:11;;;;;;;10.38;5.45;;;14.50;99.90;;;;;;4822546;29;20110;-56
2022/06/13 01:03:38;;;;;;;11.82;5.03;;;14.50;99.90;;;;;;4806011;29;20450;-61
2022/06/13 01:06:06;;;;;;;13.93;4.85;;;14.50;99.90;;;;;;4806259;29;20062;-58
2022/06/13 01:08:35;;;;;;;19.45;5.50;;;14.50;99.90;;;;;;4822618;29;20054;-57
2022/06/13 01:11:17;;;;;;;13.60;5.63;;;14.50;99.90;;;;;;4821504;29;20082;-57
2022/06/13 01:14:04;;;;;;;15.18;5.78;;;14.50;99.90;;;;;;4822200;29;20065;-58
2022/06/13 01:16:39;;;;;;;17.90;5.65;;;14.60;99.90;;;;;;4821246;29;20054;-56
2022/06/13 01:19:35;;;;;;;11.25;4.95;;;14.60;99.90;;;;;;4822475;29;20481;-57
2022/06/13 01:22:25;;;;;;;14.73;5.82;;;14.60;99.90;;;;;;4821309;29;20424;-57
2022/06/13 01:25:09;;;;;;;16.33;5.32;;;14.60;99.90;;;;;;4821354;29;20081;-59
2022/06/13 01:28:01;;;;;;;14.98;5.60;;;14.60;99.90;;;;;;4822611;29;20190;-58
2022/06/13 01:31:04;;;;;;;12.50;5.43;;;14.60;99.90;;;;;;4821806;29;20058;-58
2022/06/13 01:34:03;;;;;;;12.15;5.47;;;14.60;99.90;;;;;;4806059;29;20066;-55
2022/06/13 01:36:31;;;;;;;13.98;5.82;;;14.60;99.90;;;;;;4822174;29;20076;-57
2022/06/13 01:39:03;;;;;;;13.18;5.57;;;14.60;99.90;;;;;;4821896;29;20056;-57
2022/06/13 01:41:36;;;;;;;15.15;5.50;;;14.60;99.90;;;;;;4805898;29;20137;-56
2022/06/13 01:44:13;;;;;;;16.40;6.18;;;14.60;99.90;;;;;;4821669;29;20111;-54
2022/06/13 01:47:01;;;;;;;15.95;6.00;;;14.60;99.90;;;;;;4822118;29;20409;-55
2022/06/13 01:50:00;;;;;;;14.43;6.28;;;14.60;99.90;;;;;;4822289;29;20659;-55
2022/06/13 01:52:49;;;;;;;15.30;5.90;;;14.60;99.90;;;;;;4822140;29;20145;-56
2022/06/13 01:55:40;;;;;;;13.90;5.40;;;14.70;99.90;;;;;;4805720;29;20061;-56
2022/06/13 01:58:27;;;;;;;13.82;5.68;;;14.70;99.90;;;;;;4821433;29;20318;-57
2022/06/13 02:01:34;;;;;;;14.65;5.78;;;14.70;99.90;;;;;;4821532;29;20050;-56
2022/06/13 02:04:06;;;;;;;17.38;5.60;;;14.70;99.90;;;;;;4746957;30;20368;-56
2022/06/13 02:06:36;;;;;;;12.05;4.85;;;14.70;99.90;;;;;;4812426;29;20508;-54
2022/06/13 02:09:11;;;;;;;11.88;4.97;;;14.70;99.90;;;;;;4821559;29;20046;-58
2022/06/13 02:11:44;;;;;;;14.05;5.75;;;14.70;99.90;;;;;;4823797;29;20517;-56
2022/06/13 02:14:45;;;;;;;14.40;4.90;;;14.60;99.90;;;;;;4793494;29;20110;-56
2022/06/13 02:17:14;;;;;;;10.57;4.90;;;14.60;99.90;;;;;;4793308;29;20058;-56
2022/06/13 02:19:47;;;;;;;15.02;5.00;;;14.60;99.90;;;;;;4825022;29;20046;-57
2022/06/13 02:22:30;;;;;;;14.02;5.13;;;14.60;99.90;;;;;;4824895;29;20114;-59
2022/06/13 02:25:08;;;;;;;13.80;5.43;;;14.60;99.90;;;;;;4824474;29;20137;-59
2022/06/13 02:27:37;;;;;;;12.95;4.88;;;14.60;99.90;;;;;;4824876;29;20148;-58
2022/06/13 02:30:10;;;;;;;12.00;4.75;;;14.60;99.90;;;;;;4824501;29;20050;-56
2022/06/13 02:32:48;;;;;;;13.50;5.03;;;14.60;99.90;;;;;;4824816;29;20050;-56
2022/06/13 02:35:38;;;;;;;13.05;5.47;;;14.60;99.90;;;;;;4807915;29;20132;-58
2022/06/13 02:38:10;;;;;;;15.40;4.90;;;14.60;99.90;;;;;;4824284;29;20101;-58
2022/06/13 02:40:44;;;;;;;14.85;5.43;;;14.60;99.90;;;;;;4808743;29;20390;-57
2022/06/13 02:43:13;;;;;;;16.33;5.20;;;14.60;99.90;;;;;;4824196;29;20050;-56
2022/06/13 02:45:54;;;;;;;14.05;4.70;;;14.60;99.90;;;;;;4808411;29;20051;-56
2022/06/13 02:48:49;;;;;;;17.55;4.65;;;14.60;99.90;;;;;;4808500;29;20111;-58
2022/06/13 02:51:42;;;;;;;12.45;4.57;;;14.60;99.90;;;;;;4824135;29;20086;-57
2022/06/13 02:54:26;;;;;;;10.57;4.63;;;14.60;99.90;;;;;;4823939;29;20119;-58
2022/06/13 02:57:23;;;;;;;13.68;4.70;;;14.60;99.90;;;;;;4824007;29;20050;-61
2022/06/13 03:00:02;;;;;;;10.77;5.07;;;14.70;99.90;;;;;;4824147;29;20141;-59
2022/06/13 03:02:46;;;;;;;11.52;4.65;;;14.60;99.90;;;;;;4824068;29;20054;-56
2022/06/13 03:05:25;;;;;;;13.02;4.88;;;14.60;99.90;;;;;;4823265;29;20575;-54
2022/06/13 03:07:59;;;;;;;16.55;5.05;;;14.60;99.90;;;;;;4807646;29;20058;-56
2022/06/13 03:10:35;;;;;;;12.63;4.72;;;14.60;99.90;;;;;;4824013;29;20134;-55
2022/06/13 03:13:08;;;;;;;12.38;4.78;;;14.60;99.90;;;;;;4823527;29;20125;-59
2022/06/13 03:15:47;;;;;;;13.77;4.60;;;14.60;99.90;;;;;;4823762;29;20055;-55
2022/06/13 03:18:20;;;;;;;10.30;4.15;;;14.50;99.90;;;;;;4806979;29;20051;-56
2022/06/13 03:21:04;;;;;;;12.63;4.50;;;14.50;99.90;;;;;;4792360;29;20070;-57
2022/06/13 03:23:38;;;;;;;13.07;4.40;;;14.50;99.90;;;;;;4823431;29;20560;-56
2022/06/13 03:26:11;;;;;;;9.68;3.92;;;14.50;99.90;;;;;;4823527;29;20069;-58
2022/06/13 03:29:03;;;;;;;12.32;4.07;;;14.50;99.90;;;;;;4807632;29;20061;-56
2022/06/13 03:31:34;;;;;;;16.17;4.05;;;14.40;99.90;;;;;;4823635;29;20122;-57
2022/06/13 03:34:17;;;;;;;9.35;3.80;;;14.40;99.90;;;;;;4823263;29;20057;-57
2022/06/13 03:36:58;;;;;;;13.63;4.65;;;14.40;99.90;;;;;;4823581;29;20055;-58
2022/06/13 03:39:37;;;;;;;13.98;4.68;;;14.30;99.90;;;;;;4823607;29;20065;-56
2022/06/13 03:42:16;;;;;;;13.18;4.60;;;14.30;99.90;;;;;;4823193;29;20562;-58
2022/06/13 03:45:09;;;;;;;16.05;4.55;;;14.30;99.90;;;;;;4823585;29;20046;-57
2022/06/13 03:47:52;;;;;;;15.15;4.80;;;14.30;99.90;;;;;;4785143;29;20073;-55
2022/06/13 03:50:43;;;;;;;14.52;4.35;;;14.30;99.90;;;;;;4823249;29;20066;-56
2022/06/13 03:53:50;;;;;;;10.80;3.92;;;14.30;99.90;;;;;;4822416;29;20535;-56
2022/06/13 03:56:19;;;;;;;14.30;4.43;;;14.30;99.90;;;;;;4766783;29;20065;-58
2022/06/13 03:58:51;;;;;;;11.13;4.15;;;14.30;99.90;;;;;;4823345;29;20135;-55
2022/06/13 04:01:23;;;;;;;12.75;4.25;;;14.40;99.90;;;;;;4823029;29;20055;-55
2022/06/13 04:03:49;;;;;;;12.05;4.40;;;14.40;99.90;;;;;;4823387;29;20508;-57
2022/06/13 04:06:41;;;;;;;10.45;4.00;;;14.40;99.90;;;;;;4822797;29;20055;-56
2022/06/13 04:09:29;;;;;;;13.20;4.03;;;14.40;99.90;;;;;;4822984;29;20114;-57
2022/06/13 04:12:16;;;;;;;11.77;4.18;;;14.40;99.90;;;;;;4822994;29;20523;-54
2022/06/13 04:14:56;;;;;;;9.88;3.75;;;14.50;99.90;;;;;;4823227;29;20066;-56
2022/06/13 04:17:48;;;;;;;9.75;4.35;;;14.50;99.90;;;;;;4806614;29;20401;-58
2022/06/13 04:20:25;;;;;;;9.90;3.85;;;14.60;99.90;;;;;;4822489;29;20054;-55
2022/06/13 04:23:09;;;;;;;9.45;3.88;;;14.60;99.90;;;;;;4823065;29;20053;-58
2022/06/13 04:25:46;;;;;;;10.23;3.50;;;14.60;99.90;;;;;;4823180;29;20061;-58
2022/06/13 04:28:24;;;;;;;9.13;3.47;;;14.70;99.90;;;;;;4822666;29;20076;-58
2022/06/13 04:30:53;;;;;;;11.73;4.03;;;14.60;99.90;;;;;;4822998;29;20061;-58
2022/06/13 04:33:45;;;;;;;9.70;3.67;;;14.70;99.90;;;;;;4821711;29;20489;-56
2022/06/13 04:36:14;;;;;;;10.85;4.00;;;14.70;99.90;;;;;;4822420;29;20051;-59
2022/06/13 04:38:42;;;;;;;10.80;3.88;;;14.70;99.90;;;;;;4822881;29;20051;-56
2022/06/13 04:41:09;;;;;;;9.85;3.70;;;14.90;99.90;;;;;;4822270;29;20085;-61
2022/06/13 04:43:48;;;;;;;9.90;3.25;;;15.00;99.90;;;;;;4822338;29;20489;-58
2022/06/13 04:46:17;;;;;;;10.27;3.40;;;15.20;99.90;;;;;;4822407;29;20092;-58
2022/06/13 04:48:47;;;;;;;11.30;3.67;;;15.30;99.90;;;;;;4822781;29;20046;-58
2022/06/13 04:51:21;;;;;;;8.65;3.40;;;15.30;99.90;;;;;;4791126;29;20050;-56
2022/06/13 04:53:49;;;;;;;7.57;3.30;;;15.30;99.90;;;;;;4822699;29;20058;-58
2022/06/13 04:56:15;;;;;;;8.50;3.47;;;15.50;99.90;;;;;;4805841;29;20050;-55
2022/06/13 04:58:42;;;;;;;9.05;3.72;;;15.80;99.90;;;;;;4822682;29;20086;-56
2022/06/13 05:01:15;;;;;;;9.88;2.88;;;16.00;99.90;;;;;;4822631;29;20042;-56
2022/06/13 05:03:43;;;;;;;7.68;3.00;;;15.90;99.90;;;;;;4822512;29;20092;-56
2022/06/13 05:06:30;;;;;;;8.25;3.10;;;15.80;99.90;;;;;;4822399;29;20085;-56
2022/06/13 05:09:06;;;;;;;9.30;2.50;;;15.50;99.90;;;;;;4805990;29;20493;-58
2022/06/13 05:11:38;;;;;;;8.10;2.42;;;15.20;99.90;;;;;;4805890;29;20345;-57
2022/06/13 05:14:25;;;;;;;7.03;2.45;;;15.00;99.90;;;;;;4822488;29;20062;-56
2022/06/13 05:16:57;;;;;;;6.00;1.98;;;14.80;99.90;;;;;;4805931;29;20570;-56
2022/06/13 05:19:44;;;;;;;9.95;2.47;;;14.70;99.90;;;;;;4821860;29;20057;-57
2022/06/13 05:22:51;;;;;;;7.05;2.33;;;14.60;99.90;;;;;;4802767;29;20063;-57
2022/06/13 05:25:34;;;;;;;6.18;2.10;;;14.50;99.90;;;;;;4803386;29;20086;-55
2022/06/13 05:28:00;;;;;;;8.10;2.25;;;14.50;99.90;;;;;;4804126;29;20054;-57
2022/06/13 05:30:26;;;;;;;9.32;2.05;;;14.60;99.90;;;;;;4803765;29;20066;-56
2022/06/13 05:32:52;;;;;;;6.32;2.00;;;14.70;99.90;;;;;;4804118;29;20053;-57
2022/06/13 05:35:22;;;;;;;5.20;2.10;;;15.50;99.90;;;;;;4803543;29;20051;-58
2022/06/13 05:37:50;;;;;;;7.13;2.00;;;16.80;99.90;;;;;;4804274;29;20054;-57
2022/06/13 05:40:18;;;;;;;5.95;1.67;;;17.90;99.90;;;;;;4803834;29;20409;-60
2022/06/13 05:42:45;;;;;;;6.15;2.15;;;18.80;99.90;;;;;;4803709;29;20086;-58
2022/06/13 05:45:12;;;;;;;3.67;1.85;;;19.90;99.90;;;;;;4804160;29;20050;-57
2022/06/13 05:47:40;;;;;;;7.28;2.20;;;20.70;99.90;;;;;;4807244;29;20058;-60
2022/06/13 05:50:06;;;;;;;6.90;1.90;;;21.00;99.90;;;;;;4807577;29;20111;-58
2022/06/13 05:52:31;;;;;;;7.20;1.95;;;20.80;99.50;;;;;;4806023;29;20063;-62
2022/06/13 05:54:57;;;;;;;6.22;1.70;;;20.00;99.90;;;;;;4807365;29;20050;-57
2022/06/13 05:57:23;;;;;;;5.20;1.75;;;19.50;99.90;;;;;;4806974;29;20486;-58
2022/06/13 05:59:49;;;;;;;4.30;2.00;;;19.00;99.90;;;;;;4806054;29;20062;-58
2022/06/13 06:02:15;;;;;;;6.13;1.80;;;18.60;99.90;;;;;;4806842;29;20054;-57
2022/06/13 06:04:40;;;;;;;6.07;1.70;;;18.30;99.90;;;;;;4806980;29;20067;-58
2022/06/13 06:07:07;;;;;;;6.35;2.10;;;18.50;99.90;;;;;;4806317;29;20170;-57
2022/06/13 06:09:33;;;;;;;5.63;2.03;;;19.40;99.90;;;;;;4807016;29;20188;-58
2022/06/13 06:11:58;;;;;;;5.43;1.70;;;20.30;99.90;;;;;;4806164;29;20141;-59
2022/06/13 06:14:24;;;;;;;5.05;1.92;;;21.00;99.90;;;;;;4806921;29;20051;-59
2022/06/13 06:16:50;;;;;;;6.72;1.95;;;21.10;99.90;;;;;;4791170;29;20057;-59
2022/06/13 06:19:16;;;;;;;6.65;1.70;;;20.90;99.90;;;;;;4807301;29;20421;-59
2022/06/13 06:21:41;;;;;;;6.40;2.10;;;21.10;99.90;;;;;;4816742;29;20272;-58
2022/06/13 06:24:07;;;;;;;5.95;1.70;;;21.50;99.90;;;;;;4824931;29;20062;-57
2022/06/13 06:26:33;;;;;;;6.93;2.08;;;21.10;99.90;;;;;;4808561;29;20061;-56
2022/06/13 06:28:58;;;;;;;6.88;1.85;;;20.20;99.90;;;;;;4825176;29;20058;-58
2022/06/13 06:31:24;;;;;;;6.22;1.75;;;19.50;99.90;;;;;;4808171;29;20060;-60
2022/06/13 06:33:50;;;;;;;5.22;1.70;;;18.90;99.90;;;;;;4824916;29;20120;-57
2022/06/13 06:36:16;;;;;;;8.68;1.92;;;18.40;99.90;;;;;;4824710;29;20054;-57
2022/06/13 06:38:43;;;;;;;5.43;2.00;;;18.10;99.90;;;;;;4808395;29;20122;-57
2022/06/13 06:41:09;;;;;;;5.43;1.73;;;17.90;99.90;;;;;;4824781;29;20125;-56
2022/06/13 06:43:35;;;;;;;6.75;2.05;;;17.70;99.90;;;;;;4808470;29;20447;-57
2022/06/13 06:46:01;;;;;;;4.18;2.10;;;17.50;99.90;;;;;;4824436;29;20055;-59
2022/06/13 06:48:27;;;;;;;12.27;1.90;;;17.40;99.90;;;;;;4824389;29;20062;-60
2022/06/13 06:50:53;;;;;;;5.57;1.90;;;17.40;99.90;;;;;;4808821;29;20181;-54
2022/06/13 06:53:22;;;;;;;6.00;2.10;;;17.40;99.90;;;;;;4824247;29;20145;-59
2022/06/13 07:01:19;;;;;;;5.72;2.15;;;17.30;99.90;;;;;;4807892;29;20471;-58
2022/06/13 07:03:44;;;;;;;9.25;2.55;;;17.00;99.90;;;;;;4807641;29;20043;-60
2022/06/13 07:06:14;;;;;;;4.70;1.70;;;16.80;99.90;;;;;;4824398;29;20054;-59
2022/06/13 07:08:41;;;;;;;5.90;2.08;;;16.70;99.90;;;;;;4823752;29;20050;-55
2022/06/13 07:13:55;;;;;;;7.07;2.17;;;16.80;99.90;;;;;;4807623;29;20516;-58
2022/06/13 07:16:21;;;;;;;8.25;2.13;;;17.90;99.90;;;;;;4824275;29;20137;-59
2022/06/13 07:18:46;;;;;;;4.95;1.70;;;18.70;99.90;;;;;;4823801;29;20050;-58
2022/06/13 07:21:14;;;;;;;7.43;2.20;;;19.40;99.90;;;;;;4807347;29;20055;-59
2022/06/13 07:23:40;;;;;;;6.00;2.00;;;20.30;99.90;;;;;;4792596;29;20057;-57
2022/06/13 07:26:06;;;;;;;5.10;1.65;;;20.70;99.90;;;;;;4824179;29;20046;-58
2022/06/13 07:28:32;;;;;;;9.88;2.00;;;20.90;99.90;;;;;;4823865;29;20050;-59
2022/06/13 07:30:58;;;;;;;6.25;1.85;;;20.90;99.90;;;;;;4807157;29;20134;-59
2022/06/13 07:33:24;;;;;;;8.10;1.90;;;20.40;99.90;;;;;;4823956;29;20104;-58
2022/06/13 07:35:50;;;;;;;5.30;1.50;;;19.90;99.90;;;;;;4823610;29;20058;-58
2022/06/13 07:38:19;;;;;;;8.23;1.83;;;19.40;99.90;;;;;;4823677;29;20108;-58
2022/06/13 07:40:50;;;;;;;6.32;1.77;;;19.00;99.90;;;;;;4807410;29;20057;-58
2022/06/13 07:43:31;;;;;;;7.00;1.90;;;18.80;99.90;;;;;;4823905;29;20065;-58
2022/06/13 07:46:02;;;;;;;6.05;1.65;;;19.00;99.90;;;;;;4807151;29;20086;-58
2022/06/13 07:48:28;;;;;;;4.47;1.50;;;19.10;99.90;;;;;;4807334;29;20134;-58
2022/06/13 07:50:54;;;;;;;7.97;1.80;;;19.10;99.90;;;;;;4823223;29;20051;-58
2022/06/13 07:53:20;;;;;;;5.10;1.65;;;19.20;99.90;;;;;;4823850;29;20135;-58
2022/06/13 07:55:46;;;;;;;6.25;1.50;;;20.00;99.90;;;;;;4807403;29;20480;-58
2022/06/13 07:58:32;;;;;;;5.18;1.40;;;20.80;99.90;;;;;;4807529;29;20091;-59
2022/06/13 08:00:58;;;;;;;5.53;1.30;;;21.30;99.90;;;;;;4807030;29;20054;-60
2022/06/13 08:03:29;;;;;;;4.10;1.33;;;22.20;99.10;;;;;;4807147;29;20115;-60
2022/06/13 08:05:55;;;;;;;7.35;1.80;;;22.50;97.70;;;;;;4791957;29;20057;-59
2022/06/13 08:08:21;;;;;;;5.70;1.73;;;23.00;97.70;;;;;;4822622;29;20054;-58
2022/06/13 08:10:48;;;;;;;3.42;1.30;;;23.70;97.00;;;;;;4822894;29;20068;-58
2022/06/13 08:13:17;;;;;;;4.88;1.67;;;23.70;96.10;;;;;;4823523;29;20047;-59
2022/06/13 08:15:43;;;;;;;3.53;1.52;;;23.50;95.70;;;;;;4823040;29;20123;-59
2022/06/13 08:18:11;;;;;;;5.13;1.52;;;24.10;95.20;;;;;;4823460;29;20050;-59
2022/06/13 08:20:38;;;;;;;6.63;1.70;;;24.20;94.50;;;;;;4823301;29;20050;-59
2022/06/13 08:23:06;;;;;;;5.15;1.50;;;23.60;94.60;;;;;;4822977;29;20061;-59
2022/06/13 08:25:33;;;;;;;7.95;1.90;;;23.70;95.00;;;;;;4823280;29;20114;-59
2022/06/13 08:28:00;;;;;;;7.13;1.80;;;23.90;93.70;;;;;;4822684;29;20097;-58
2022/06/13 08:30:39;;;;;;;4.82;1.48;;;23.90;93.90;;;;;;4823196;29;20141;-58
2022/06/13 08:33:05;;;;;;;4.97;1.52;;;23.30;94.60;;;;;;4806756;29;20058;-58
2022/06/13 08:35:31;;;;;;;4.65;1.50;;;22.80;93.80;;;;;;4823128;29;20488;-59
2022/06/13 08:37:57;;;;;;;5.38;1.80;;;22.60;94.40;;;;;;4822591;29;20128;-57
2022/06/13 08:40:29;;;;;;;6.93;1.60;;;22.90;93.80;;;;;;4823054;29;20057;-57
2022/06/13 08:43:28;;;;;;;3.95;1.30;;;22.90;93.80;;;;;;4822807;29;20055;-58
2022/06/13 08:46:05;;;;;;;5.60;1.40;;;22.00;93.70;;;;;;4813735;29;20079;-58
2022/06/13 08:48:41;;;;;;;5.88;1.77;;;21.90;94.10;;;;;;4822972;29;20062;-59
2022/06/13 08:51:35;;;;;;;4.70;1.45;;;22.10;94.00;;;;;;4822233;29;20569;-61
2022/06/13 08:54:04;;;;;;;3.10;1.23;;;21.60;94.20;;;;;;4821351;29;20061;-60
2022/06/13 08:56:35;;;;;;;4.97;1.48;;;21.20;94.20;;;;;;4822740;29;20400;-60
2022/06/13 08:59:22;;;;;;;4.30;1.42;;;20.60;94.70;;;;;;4806175;29;20058;-60
2022/06/13 09:01:53;;;;;;;3.40;1.40;;;20.80;95.40;;;;;;4804463;29;20065;-62
2022/06/13 09:04:33;;;;;;;5.65;1.55;;;21.70;94.30;;;;;;4802902;29;20069;-60
2022/06/13 09:07:05;;;;;;;4.95;1.88;;;22.70;93.40;;;;;;4804707;29;20054;-60
2022/06/13 09:10:00;;;;;;;6.55;1.65;;;22.90;93.10;;;;;;4822460;29;20061;-61
2022/06/13 09:12:35;;;;;;;10.13;1.70;;;22.90;92.50;;;;;;4822809;29;20125;-59
2022/06/13 09:15:14;;;;;;;5.53;1.65;;;23.50;92.10;;;;;;4821578;29;20230;-59
2022/06/13 09:18:05;;;;;;;3.97;1.27;;;23.50;92.00;;;;;;4806281;29;20064;-60
2022/06/13 09:20:43;;;;;;;6.85;1.85;;;23.90;92.20;;;;;;4808173;29;20614;-60
2022/06/13 09:23:17;;;;;;;3.42;1.35;;;24.00;91.90;;;;;;4825938;29;20473;-59
2022/06/13 09:26:14;;;;;;;7.05;1.60;;;23.30;92.20;;;;;;4810192;29;20059;-58
2022/06/13 09:28:49;;;;;;;4.95;1.60;;;22.90;92.30;;;;;;4826092;29;20054;-59
2022/06/13 09:31:36;;;;;;;5.97;1.52;;;22.60;92.30;;;;;;4825988;29;20077;-59
2022/06/13 09:34:11;;;;;;;4.35;1.42;;;21.90;92.50;;;;;;4825676;29;20054;-59
2022/06/13 09:37:00;;;;;;;4.45;1.50;;;21.70;92.50;;;;;;4825564;29;20054;-57
2022/06/13 09:39:25;;;;;;;6.57;1.60;;;22.00;92.90;;;;;;4793827;29;20169;-59
2022/06/13 09:42:09;;;;;;;5.07;1.60;;;21.90;92.30;;;;;;4794013;29;20513;-62
2022/06/13 09:44:45;;;;;;;;;;;21.70;92.90;;;;;;4826032;29;20054;-60
2022/06/13 09:47:14;;;;;;;6.25;1.70;;;21.90;93.60;;;;;;4824362;29;20048;-60
2022/06/13 09:50:20;;;;;;;5.10;1.63;;;22.40;93.60;;;;;;4825325;29;20046;-60
2022/06/13 09:53:08;;;;;;;6.63;2.00;;;22.80;93.10;;;;;;4794239;29;20066;-59
2022/06/13 09:55:44;;;;;;;5.40;1.85;;;23.40;91.90;;;;;;4824972;29;20505;-58
2022/06/13 09:58:31;;;;;;;7.32;2.00;;;22.90;92.30;;;;;;4825124;29;20053;-57
2022/06/13 10:00:56;;;;;;;6.78;1.75;;;22.50;91.90;;;;;;4824598;29;20046;-58
2022/06/13 10:03:51;;;;;;;7.47;2.08;;;21.90;92.50;;;;;;4825135;29;20508;-59
2022/06/13 10:06:36;;;;;;;4.22;1.63;;;21.50;93.20;;;;;;4808733;29;20110;-61
2022/06/13 10:09:17;;;;;;;9.63;1.80;;;21.30;93.60;;;;;;4824990;29;20390;-59
2022/06/13 10:12:20;;;;;;;6.78;1.98;;;21.30;93.70;;;;;;4825111;29;20049;-59
2022/06/13 10:14:50;;;;;;;8.65;1.75;;;21.10;93.10;;;;;;4824517;29;20054;-60
2022/06/13 10:17:36;;;;;;;5.95;1.92;;;21.00;93.20;;;;;;4794053;29;20484;-62
2022/06/13 10:20:53;;;;;;;8.10;1.90;;;20.90;94.00;;;;;;4824320;29;20069;-58
2022/06/13 10:23:41;;;;;;;5.43;1.67;;;21.20;94.40;;;;;;4750576;30;20056;-58
2022/06/13 10:26:21;;;;;;;7.45;2.28;;;20.80;94.00;;;;;;4750585;30;20048;-58
2022/06/13 10:29:14;;;;;;;7.63;1.90;;;20.70;94.20;;;;;;4794238;29;20141;-58
2022/06/13 10:32:06;;;;;;;4.30;1.65;;;20.60;94.50;;;;;;4824046;29;20129;-58
2022/06/13 10:35:00;;;;;;;7.65;2.13;;;20.70;94.10;;;;;;4824894;29;20141;-65
2022/06/13 10:37:55;;;;;;;8.65;1.88;;;20.50;94.30;;;;;;4808847;29;20054;-59
2022/06/13 10:40:22;;;;;;;7.90;1.92;;;20.50;93.90;;;;;;4792512;29;20065;-58
2022/06/13 10:42:48;;;;;;;8.00;2.22;;;20.50;94.40;;;;;;4822162;29;20098;-58
2022/06/13 10:45:16;;;;;;;7.63;2.10;;;20.60;95.00;;;;;;4824725;29;20470;-58
2022/06/13 10:48:03;;;;;;;5.28;1.85;;;20.60;94.90;;;;;;4808811;29;20054;-58
2022/06/13 10:50:37;;;;;;;8.63;2.25;;;20.60;94.60;;;;;;4808644;29;20162;-58
2022/06/13 10:53:07;;;;;;;9.05;1.95;;;20.60;95.00;;;;;;4808290;29;20125;-59
2022/06/13 10:55:41;;;;;;;8.50;2.47;;;20.70;94.90;;;;;;4808608;29;20054;-58
2022/06/13 10:58:16;;;;;;;10.77;2.28;;;20.90;95.70;;;;;;4824472;29;20079;-59
2022/06/13 11:01:11;;;;;;;8.05;2.30;;;20.80;94.90;;;;;;4824512;29;20061;-58
2022/06/13 11:03:41;;;;;;;9.07;2.20;;;20.70;95.00;;;;;;4824343;29;20413;-59
2022/06/13 11:06:17;;;;;;;8.80;2.42;;;20.80;95.00;;;;;;4808311;29;20058;-58
2022/06/13 11:08:43;;;;;;;12.57;2.55;;;20.60;95.20;;;;;;4808586;29;20183;-59
2022/06/13 11:11:16;;;;;;;11.00;2.25;;;20.30;95.20;;;;;;4824416;29;20137;-59
2022/06/13 11:13:50;;;;;;;5.82;1.73;;;20.20;95.90;;;;;;4824534;29;20118;-58
2022/06/13 11:22:38;;;;;;;5.97;1.70;;;20.10;94.30;;;;;;4798131;29;20086;-59
2022/06/13 11:25:29;;;;;;;10.32;2.17;;;20.20;94.80;;;;;;4824356;29;20142;-61
2022/06/13 11:28:14;;;;;;;6.22;2.05;;;20.30;95.20;;;;;;4824222;29;20054;-60
2022/06/13 11:30:50;;;;;;;10.00;2.25;;;20.50;95.80;;;;;;4808195;29;20110;-60
2022/06/13 11:33:24;;;;;;;6.32;1.90;;;20.40;95.20;;;;;;4823834;29;20078;-60
2022/06/13 11:36:15;;;;;;;10.20;2.42;;;20.20;94.90;;;;;;4807923;29;20126;-60
2022/06/13 11:39:04;;;;;;;5.85;2.13;;;20.10;94.90;;;;;;4814306;29;20069;-60
2022/06/13 11:41:32;;;;;;;9.27;1.90;;;20.20;95.60;;;;;;4823647;29;20042;-60
2022/06/13 11:44:19;;;;;;;8.95;1.75;;;20.00;94.40;;;;;;4792813;29;20073;-60
2022/06/13 11:47:00;;;;;;;7.95;1.92;;;19.90;94.90;;;;;;4824136;29;20109;-60
2022/06/13 11:49:36;;;;;;;5.32;1.70;;;19.90;95.60;;;;;;4807617;29;20093;-60
2022/06/13 11:52:11;;;;;;;7.18;2.28;;;19.90;96.00;;;;;;4824008;29;20042;-61
2022/06/13 11:54:52;;;;;;;10.73;2.67;;;20.00;96.20;;;;;;4823853;29;20058;-60
2022/06/13 11:57:39;;;;;;;6.53;2.08;;;20.00;96.20;;;;;;4823790;29;20416;-60
2022/06/13 12:00:20;;;;;;;9.57;1.90;;;20.00;96.20;;;;;;4823958;29;20054;-60
2022/06/13 12:02:49;;;;;;;6.72;1.70;;;20.00;95.90;;;;;;4807336;29;20060;-59
2022/06/13 12:05:20;;;;;;;10.95;2.40;;;19.90;95.80;;;;;;4792394;29;20065;-60
2022/06/13 12:07:51;;;;;;;8.77;1.98;;;19.80;95.60;;;;;;4807343;29;20107;-59
2022/06/13 12:10:34;;;;;;;6.68;2.15;;;20.00;96.30;;;;;;4823519;29;20056;-59
2022/06/13 12:13:00;;;;;;;5.95;1.70;;;20.00;95.30;;;;;;4823697;29;20054;-60
2022/06/13 12:16:07;;;;;;;6.97;1.70;;;19.90;95.40;;;;;;4822996;29;20366;-59
2022/06/13 12:18:58;;;;;;;10.30;2.33;;;20.10;95.80;;;;;;4822818;29;20501;-59
2022/06/13 12:21:48;;;;;;;7.03;1.77;;;20.00;95.50;;;;;;4806771;29;20065;-59
2022/06/13 12:24:14;;;;;;;5.88;1.67;;;19.90;95.80;;;;;;4823109;29;20050;-59
2022/06/13 12:26:59;;;;;;;5.43;1.65;;;19.50;95.60;;;;;;4807266;29;20050;-60
2022/06/13 12:30:00;;;;;;;4.97;1.42;;;19.30;95.60;;;;;;4823323;29;20050;-59
2022/06/13 12:32:31;;;;;;;6.00;1.52;;;19.10;95.30;;;;;;4823028;29;20479;-60
2022/06/13 12:35:14;;;;;;;8.15;2.15;;;19.20;95.70;;;;;;4823363;29;20121;-59
2022/06/13 12:38:04;;;;;;;7.20;1.47;;;19.30;95.80;;;;;;4823405;29;20058;-59
2022/06/13 12:40:56;;;;;;;6.50;1.58;;;19.40;95.80;;;;;;4806876;29;20458;-59
2022/06/13 12:43:48;;;;;;;4.30;1.33;;;19.60;96.30;;;;;;4794670;29;20061;-59
2022/06/13 12:46:44;;;;;;;8.90;1.80;;;19.90;96.20;;;;;;4822806;29;20055;-60
2022/06/13 12:49:19;;;;;;;6.05;1.42;;;19.80;95.70;;;;;;4823247;29;20080;-60
2022/06/13 12:51:55;;;;;;;5.43;1.30;;;19.70;95.00;;;;;;4806845;29;20157;-60
2022/06/13 12:54:47;;;;;;;8.73;1.52;;;19.60;95.70;;;;;;4822434;29;20057;-60
2022/06/13 12:57:41;;;;;;;7.03;1.60;;;19.70;96.10;;;;;;4806982;29;20379;-60
2022/06/13 13:00:26;;;;;;;8.48;1.42;;;19.80;96.00;;;;;;4806631;29;20061;-60
2022/06/13 13:03:02;;;;;;;6.20;1.70;;;19.70;95.10;;;;;;4822876;29;20454;-60
2022/06/13 13:05:45;;;;;;;5.30;1.38;;;19.60;95.90;;;;;;4822785;29;20054;-60
2022/06/13 13:08:22;;;;;;;3.05;1.00;;;19.50;95.10;;;;;;4822745;29;20569;-60
2022/06/13 13:11:21;;;;;;;4.35;1.40;;;19.50;94.20;;;;;;4822970;29;20050;-59
2022/06/13 13:13:47;;;;;;;6.32;1.30;;;19.50;94.60;;;;;;4822696;29;20516;-60
2022/06/13 13:16:27;;;;;;;3.25;1.27;;;19.40;94.90;;;;;;4822643;29;20055;-60
2022/06/13 13:19:29;;;;;;;3.13;1.13;;;19.50;94.60;;;;;;4806610;29;20057;-60
2022/06/13 13:22:06;;;;;;;2.50;1.08;;;19.40;95.20;;;;;;4806113;29;20493;-59
2022/06/13 13:24:53;;;;;;;3.83;1.30;;;19.40;94.40;;;;;;4822657;29;20090;-60
2022/06/13 13:27:21;;;;;;;3.30;1.15;;;19.30;95.00;;;;;;4806817;29;20058;-59
2022/06/13 13:30:36;;;;;;;4.18;1.38;;;19.40;94.60;;;;;;4791674;29;20080;-60
2022/06/13 13:33:27;;;;;;;5.93;1.42;;;19.50;94.40;;;;;;4804241;29;20331;-59
2022/06/13 13:36:31;;;;;;;6.30;1.13;;;19.40;94.40;;;;;;4798065;29;20065;-60
2022/06/13 13:39:04;;;;;;;5.38;1.40;;;19.40;95.20;;;;;;4822799;29;20052;-60
2022/06/13 13:42:00;;;;;;;4.53;1.70;;;19.30;95.60;;;;;;4822292;29;20054;-60
2022/06/13 13:45:03;;;;;;;7.30;1.30;;;19.40;95.70;;;;;;4820517;29;20066;-59
2022/06/13 13:47:34;;;;;;;4.60;1.33;;;19.20;94.50;;;;;;4790954;29;20058;-59